GW3084 Weather Reports


Display with metric or nautical units.
time (UTC)temp
F
wind
direction
speed
MPH
gust
MPH
rain 1hr
in
rain 24hr
in
rain mn
in
humidity
%
barometer
mb
20240223054147 44 3.0 5.0 0.00 0.00 0.00 57 1004.8
20240223052148 45 3.0 5.0 0.00 0.00 0.00 56 1004.6
20240223050148 45 3.0 4.0 0.00 0.00 0.00 54 1004.8
20240223044148 46 3.0 3.0 0.00 0.00 0.00 50 1004.9
20240223042148 47 6.0 8.0 0.00 0.00 0.00 48 1004.7
20240223040148 47 3.0 4.0 0.00 0.00 0.00 46 1004.8
20240223034147 47 2.0 3.0 0.00 0.00 0.00 45 1004.9
20240223032148 47 3.0 5.0 0.00 0.00 0.00 45 1004.7
20240223030148 47 3.0 5.0 0.00 0.00 0.00 48 1004.6
20240223024147 46 3.0 4.0 0.00 0.00 0.00 50 1004.4
20240223022147 46 2.0 3.0 0.00 0.00 0.00 50 1004.4
20240223020147 45 1.0 2.0 0.00 0.00 0.00 55 1004.4
20240223014207 45 0.0 0.0 0.00 0.00 0.00 56 1004.5
20240223012148 45 0.0 0.0 0.00 0.00 0.00 58 1004.7
20240223010316 42 0.0 0.0 0.00 0.00 0.00 62 1004.9
20240223004235 42 0.0 0.0 0.00 0.00 0.00 65 1004.8
20240223002148 43 1.0 2.0 0.00 0.00 0.00 65 1005.2
20240223000147 45 1.0 2.0 0.00 0.00 0.00 60 1005.0
20240222234147 41 0.0 0.0 0.00 0.00 0.00 69 1005.0
20240222232147 42 1.0 2.0 0.00 0.00 0.00 63 1005.1
20240222230235 44 1.0 2.0 0.00 0.00 0.00 62 1005.2
20240222224147 45 1.0 2.0 0.00 0.00 0.00 63 1005.4
20240222222148 43 3.0 5.0 0.00 0.00 0.00 63 1005.3
20240222220148 43 5.0 7.0 0.00 0.00 0.00 59 1005.5
20240222214147 44 4.0 6.0 0.00 0.00 0.00 61 1005.6
20240222212147 43 7.0 9.0 0.00 0.00 0.00 60 1005.6
20240222210235 44 7.0 10.0 0.00 0.00 0.00 60 1005.9
20240222204148 44 5.0 5.0 0.00 0.00 0.00 59 1006.0
20240222202147 46 3.0 4.0 0.00 0.00 0.00 50 1006.1
20240222200147 46 3.0 3.0 0.00 0.00 0.00 50 1006.4
20240222194147 46 3.0 4.0 0.00 0.00 0.00 54 1006.6
20240222192148 44 3.0 4.0 0.00 0.00 0.00 54 1006.7
20240222190147 47 4.0 5.0 0.00 0.00 0.00 43 1007.2
20240222184208 47 3.0 3.0 0.00 0.00 0.00 45 1007.6
20240222182148 47 4.0 5.0 0.00 0.00 0.00 41 1007.8
20240222180147 49 3.0 4.0 0.00 0.00 0.00 41 1008.5
20240222174208 49 1.0 3.0 0.00 0.00 0.00 41 1008.7
20240222173123 49 1.0 2.0 0.00 0.00 0.00 42 1009.0
20240222171300 45 4.0 5.0 0.00 0.00 0.00 52 1008.9
20240222165341 45 3.0 4.0 0.00 0.00 0.00 51 1009.7
20240222163259 44 1.0 2.0 0.00 0.00 0.00 53 1009.6
20240222161319 44 2.0 3.0 0.00 0.00 0.00 55 1009.6
20240222155300 43 4.0 5.0 0.00 0.00 0.00 52 1009.5
20240222153259 45 1.0 2.0 0.00 0.00 0.00 51 1009.5
20240222151319 44 3.0 5.0 0.00 0.00 0.00 51 1009.7
20240222145300 44 2.0 3.0 0.00 0.00 0.00 51 1009.7
20240222143259 42 2.0 3.0 0.00 0.00 0.00 56 1009.9
20240222141300 40 3.0 3.0 0.00 0.00 0.00 60 1010.2
20240222135259 38 2.0 3.0 0.00 0.00 0.00 66 1010.2
20240222133340 35 0.0 0.0 0.00 0.00 0.00 80 1010.1
20240222131259 31 0.0 0.0 0.00 0.00 0.00 79 1010.0
20240222130459 31 0.0 0.0 0.00 0.00 0.00 78 1009.8
20240222125340 31 0.0 0.0 0.00 0.00 0.00 77 1009.7
20240222123259 32 0.0 0.0 0.00 0.00 0.00 76 1009.6
20240222122500 33 0.0 0.0 0.00 0.00 0.00 76 1009.6
20240222121259 34 0.0 0.0 0.00 0.00 0.00 75 1009.7
20240222115300 34 1.0 3.0 0.00 0.00 0.00 70 1009.9
20240222113348 34 0.0 0.0 0.00 0.00 0.00 69 1009.7
20240222111259 35 0.0 0.0 0.00 0.00 0.00 71 1009.8
20240222105259 36 0.0 0.0 0.00 0.00 0.00 72 1009.6
20240222103319 34 0.0 0.0 0.00 0.00 0.00 74 1009.7
20240222101300 35 0.0 0.0 0.00 0.00 0.00 75 1009.6
20240222100520 35 0.0 0.0 0.00 0.00 0.00 76 1009.6
20240222095300 35 0.0 0.0 0.00 0.00 0.00 77 1009.6
20240222094459 34 0.0 0.0 0.00 0.00 0.00 76 1009.7
20240222093321 34 0.0 0.0 0.00 0.00 0.00 75 1009.7
20240222091319 35 0.0 0.0 0.00 0.00 0.00 74 1009.9
20240222085300 36 0.0 0.0 0.00 0.00 0.00 74 1010.1
20240222083259 36 0.0 0.0 0.00 0.00 0.00 75 1010.3
20240222082500 35 0.0 0.0 0.00 0.00 0.00 74 1010.4
20240222081259 36 0.0 0.0 0.00 0.00 0.00 74 1010.3
20240222080459 36 0.0 0.0 0.00 0.00 0.00 73 1010.5
20240222075259 37 0.0 0.0 0.00 0.00 0.00 73 1010.6
20240222073259 37 0.0 0.0 0.00 0.00 0.00 71 1011.0
20240222071300 38 0.0 0.0 0.00 0.00 0.00 69 1011.4
20240222070432 39 0.0 0.0 0.00 0.00 0.00 69 1011.6
20240222064146 40 0.0 1.0 0.00 0.00 0.00 78 1011.8
20240222062146 38 0.0 0.0 0.00 0.00 0.00 80 1011.8
20240222060146 38 0.0 0.0 0.00 0.00 0.00 81 1012.1